createdAt,value
2023-05-19T00:00:48.546Z,62.22
2023-05-19T00:03:18.029Z,60.59
2023-05-19T00:05:46.327Z,59.75
2023-05-19T00:08:13.042Z,59.94
2023-05-19T00:10:39.869Z,59.13
2023-05-19T00:13:06.620Z,59.12
2023-05-19T00:15:33.371Z,59.99
2023-05-19T00:18:00.235Z,61.16
2023-05-19T00:20:26.942Z,60.02
2023-05-19T00:22:53.666Z,61.28
2023-05-19T00:25:20.355Z,58.35
2023-05-19T00:27:46.995Z,57.85
2023-05-19T00:30:13.821Z,58.66
2023-05-19T00:32:40.896Z,59.85
2023-05-19T00:35:08.078Z,57.31
2023-05-19T00:37:34.813Z,58.31
2023-05-19T00:40:01.475Z,57.51
2023-05-19T00:42:28.166Z,59.28
2023-05-19T00:44:54.909Z,58.60
2023-05-19T00:47:21.740Z,58.82
2023-05-19T00:49:48.531Z,58.92
2023-05-19T00:52:15.239Z,59.02
2023-05-19T00:54:41.956Z,59.26
2023-05-19T00:57:08.615Z,59.80
2023-05-19T00:59:35.280Z,60.24
2023-05-19T01:02:03.016Z,59.32
2023-05-19T01:04:29.973Z,60.42
2023-05-19T01:06:56.637Z,59.42
2023-05-19T01:09:23.441Z,58.94
2023-05-19T01:11:50.450Z,58.91
2023-05-19T01:14:17.360Z,60.83
2023-05-19T01:16:46.953Z,61.03
2023-05-19T01:19:32.306Z,59.39
2023-05-19T01:22:01.291Z,59.24
2023-05-19T01:24:37.059Z,58.94
2023-05-19T01:27:13.824Z,58.98
2023-05-19T01:29:42.412Z,60.74
2023-05-19T01:32:09.713Z,59.62
2023-05-19T01:34:37.702Z,59.80
2023-05-19T01:37:04.416Z,59.65
2023-05-19T01:39:31.191Z,59.17
2023-05-19T01:41:57.933Z,59.79
2023-05-19T01:44:24.594Z,59.46
2023-05-19T01:46:51.265Z,59.73
2023-05-19T01:49:17.951Z,59.03
2023-05-19T01:51:44.922Z,59.74
2023-05-19T01:54:11.622Z,59.96
2023-05-19T01:56:44.000Z,59.61
2023-05-19T01:59:20.780Z,59.53
2023-05-19T02:01:54.245Z,59.48
2023-05-19T02:04:21.755Z,60.64
2023-05-19T02:06:57.595Z,59.50
2023-05-19T02:09:35.582Z,60.55
2023-05-19T02:12:15.339Z,60.81
2023-05-19T02:14:44.160Z,61.22
2023-05-19T02:17:11.090Z,61.98
2023-05-19T02:19:38.710Z,61.83
2023-05-19T02:22:05.469Z,61.38
2023-05-19T02:24:32.222Z,61.68
2023-05-19T02:26:59.677Z,62.26
2023-05-19T02:29:26.859Z,62.86
2023-05-19T02:31:53.598Z,63.46
2023-05-19T02:34:20.294Z,64.36
2023-05-19T02:36:50.108Z,63.08
2023-05-19T02:39:16.801Z,63.42
2023-05-19T02:41:43.478Z,63.96
2023-05-19T02:44:10.131Z,63.59
2023-05-19T02:46:37.677Z,63.76
2023-05-19T02:49:04.404Z,64.47
2023-05-19T02:51:31.214Z,63.04
2023-05-19T02:53:57.958Z,63.38
2023-05-19T02:56:24.641Z,63.69
2023-05-19T02:58:52.855Z,63.35
2023-05-19T03:01:22.644Z,63.24
2023-05-19T03:03:49.526Z,63.82
2023-05-19T03:06:18.295Z,63.57
2023-05-19T03:08:45.229Z,64.03
2023-05-19T03:11:11.936Z,63.99
2023-05-19T03:13:38.795Z,64.58
2023-05-19T03:16:08.286Z,64.01
2023-05-19T03:18:35.480Z,64.19
2023-05-19T03:21:02.154Z,64.88
2023-05-19T03:23:28.844Z,65.18
2023-05-19T03:25:56.463Z,65.08
2023-05-19T03:28:23.608Z,65.48
2023-05-19T03:30:53.193Z,65.03
2023-05-19T03:33:24.180Z,65.65
2023-05-19T03:35:53.151Z,66.08
2023-05-19T03:38:20.486Z,66.17
2023-05-19T03:40:53.820Z,65.13
2023-05-19T03:43:20.688Z,65.45
2023-05-19T03:45:53.770Z,65.95
2023-05-19T03:48:39.067Z,65.25
2023-05-19T03:51:31.378Z,65.47
2023-05-19T03:54:06.205Z,66.02
2023-05-19T03:56:33.104Z,65.85
2023-05-19T03:59:00.418Z,66.15
2023-05-19T04:01:27.090Z,66.25
2023-05-19T04:03:53.707Z,64.89
2023-05-19T04:06:20.406Z,66.02
2023-05-19T04:08:47.042Z,65.97
2023-05-19T04:11:13.719Z,65.89
2023-05-19T04:13:40.376Z,65.36
2023-05-19T04:16:07.294Z,65.45
2023-05-19T04:18:34.068Z,65.88
2023-05-19T04:21:00.719Z,65.36
2023-05-19T04:23:27.474Z,66.05
2023-05-19T04:25:57.263Z,65.96
2023-05-19T04:28:24.134Z,65.69
2023-05-19T04:30:50.825Z,66.01
2023-05-19T04:33:18.031Z,65.50
2023-05-19T04:35:44.784Z,66.77
2023-05-19T04:38:12.684Z,66.24
2023-05-19T04:40:42.416Z,67.02
2023-05-19T04:43:09.685Z,66.35
2023-05-19T04:45:37.888Z,66.57
2023-05-19T04:48:07.099Z,66.26
2023-05-19T04:50:34.397Z,66.99
2023-05-19T04:53:01.242Z,66.42
2023-05-19T04:55:27.945Z,66.16
2023-05-19T04:57:54.718Z,66.34
2023-05-19T05:00:22.500Z,66.03
2023-05-19T05:02:57.745Z,66.25
2023-05-19T05:05:26.344Z,65.91
2023-05-19T05:07:54.309Z,67.42
2023-05-19T05:10:22.796Z,65.42
2023-05-19T05:12:49.647Z,66.76
2023-05-19T05:15:16.507Z,65.66
2023-05-19T05:17:44.347Z,67.44
2023-05-19T05:20:11.960Z,66.46
2023-05-19T05:22:41.268Z,66.45
2023-05-19T05:25:09.165Z,64.36
2023-05-19T05:27:37.041Z,66.54
2023-05-19T05:30:05.546Z,65.68
2023-05-19T05:32:32.319Z,64.65
2023-05-19T05:35:01.504Z,66.68
2023-05-19T05:37:28.771Z,65.54
2023-05-19T05:39:55.465Z,66.81
2023-05-19T05:42:22.120Z,64.96
2023-05-19T05:44:49.457Z,64.65
2023-05-19T05:47:17.250Z,64.56
2023-05-19T05:49:48.324Z,66.79
2023-05-19T05:52:15.977Z,67.80
2023-05-19T05:54:46.523Z,65.17
2023-05-19T05:57:15.889Z,65.40
2023-05-19T05:59:45.584Z,64.74
2023-05-19T06:02:12.352Z,63.89
2023-05-19T06:04:39.492Z,63.28
2023-05-19T06:07:06.290Z,63.29
2023-05-19T06:09:36.372Z,63.99
2023-05-19T06:12:04.238Z,63.13
2023-05-19T06:14:35.992Z,65.56
2023-05-19T06:17:25.492Z,64.77
2023-05-19T06:19:52.419Z,65.00
2023-05-19T06:22:19.070Z,65.20
2023-05-19T06:24:45.804Z,65.35
2023-05-19T06:27:12.537Z,61.94
2023-05-19T06:29:39.246Z,63.16
2023-05-19T06:32:07.987Z,64.07
2023-05-19T06:34:35.020Z,63.69
2023-05-19T06:37:02.694Z,63.10
2023-05-19T06:39:30.654Z,63.72
2023-05-19T06:41:57.378Z,62.69
2023-05-19T06:44:43.982Z,64.61
2023-05-19T06:47:12.111Z,66.59
2023-05-19T06:49:39.133Z,65.10
2023-05-19T06:52:06.492Z,62.03
2023-05-19T06:54:33.201Z,62.97
2023-05-19T06:56:59.902Z,63.47
2023-05-19T06:59:26.965Z,61.53
2023-05-19T07:01:53.690Z,64.05
2023-05-19T07:04:20.362Z,64.60
2023-05-19T07:06:47.120Z,60.55
2023-05-19T07:09:14.161Z,59.19
2023-05-19T07:11:41.457Z,61.47
2023-05-19T07:14:09.800Z,61.83
2023-05-19T07:16:36.630Z,61.29
2023-05-19T07:19:05.220Z,59.26
2023-05-19T07:21:33.090Z,56.84
2023-05-19T07:23:59.793Z,60.49
2023-05-19T07:26:28.338Z,59.94
2023-05-19T07:28:54.997Z,59.40
2023-05-19T07:31:21.795Z,57.29
2023-05-19T07:33:48.495Z,59.69
2023-05-19T07:36:15.151Z,57.65
2023-05-19T07:38:41.875Z,60.39
2023-05-19T07:41:08.849Z,58.31
2023-05-19T07:43:35.559Z,59.39
2023-05-19T07:46:02.341Z,61.00
2023-05-19T07:48:29.720Z,56.46
2023-05-19T07:50:56.565Z,59.25
2023-05-19T07:53:23.353Z,59.45
2023-05-19T07:55:50.398Z,58.93
2023-05-19T07:58:17.621Z,58.64
2023-05-19T08:00:46.068Z,58.25
2023-05-19T08:03:13.942Z,57.15
2023-05-19T08:05:40.781Z,58.23
2023-05-19T08:08:07.467Z,58.50
2023-05-19T08:10:34.422Z,57.79
2023-05-19T08:13:03.955Z,59.24
2023-05-19T08:15:30.969Z,57.69
2023-05-19T08:17:57.997Z,59.53
2023-05-19T08:20:24.808Z,56.68
2023-05-19T08:22:51.715Z,56.59
2023-05-19T08:25:19.996Z,58.26
2023-05-19T08:27:46.854Z,57.83
2023-05-19T08:30:13.534Z,58.29
2023-05-19T08:32:40.286Z,58.37
2023-05-19T08:35:07.821Z,58.83
2023-05-19T08:37:37.297Z,58.51
2023-05-19T08:40:05.590Z,58.54
2023-05-19T08:42:33.323Z,59.86
2023-05-19T08:45:00.251Z,57.69
2023-05-19T08:47:28.104Z,59.33
2023-05-19T08:49:56.364Z,57.95
2023-05-19T08:52:25.756Z,59.08
2023-05-19T08:54:54.639Z,59.24
2023-05-19T08:57:21.751Z,59.12
2023-05-19T08:59:49.283Z,56.98
2023-05-19T09:02:16.181Z,56.28
2023-05-19T09:04:46.183Z,56.08
2023-05-19T09:07:13.865Z,56.99
2023-05-19T09:09:43.719Z,56.55
2023-05-19T09:12:13.770Z,56.12
2023-05-19T09:14:40.566Z,57.72
2023-05-19T09:17:07.359Z,56.74
2023-05-19T09:19:34.145Z,58.40
2023-05-19T09:22:03.485Z,56.86
2023-05-19T09:24:30.254Z,57.41
2023-05-19T09:27:00.410Z,57.41
2023-05-19T09:29:27.298Z,59.59
2023-05-19T09:31:54.809Z,58.38
2023-05-19T09:34:22.562Z,57.54
2023-05-19T09:36:49.723Z,56.60
2023-05-19T09:39:16.731Z,56.58
2023-05-19T09:41:43.492Z,57.78
2023-05-19T09:44:13.735Z,56.17
2023-05-19T09:46:47.676Z,57.11
2023-05-19T09:49:14.608Z,57.61
2023-05-19T09:51:41.497Z,57.20
2023-05-19T09:54:10.262Z,56.52
2023-05-19T09:56:36.893Z,53.74
2023-05-19T09:59:03.973Z,58.27
2023-05-19T10:01:31.647Z,55.34
2023-05-19T10:03:58.304Z,57.49
2023-05-19T10:06:24.914Z,55.65
2023-05-19T10:08:51.803Z,55.67
2023-05-19T10:11:18.457Z,57.90
2023-05-19T10:13:45.752Z,54.96
2023-05-19T10:16:12.456Z,56.60
2023-05-19T10:18:39.990Z,59.23
2023-05-19T10:21:07.541Z,59.45
2023-05-19T10:23:34.437Z,56.65
2023-05-19T10:26:01.390Z,58.96
2023-05-19T10:28:31.637Z,58.08
2023-05-19T10:30:59.129Z,58.05
2023-05-19T10:33:44.637Z,58.30
2023-05-19T10:36:23.517Z,57.73
2023-05-19T10:38:53.830Z,57.30
2023-05-19T10:41:23.415Z,58.15
2023-05-19T10:43:50.068Z,57.44
2023-05-19T10:46:16.877Z,55.66
2023-05-19T10:48:44.630Z,53.51
2023-05-19T10:51:12.421Z,56.27
2023-05-19T10:53:52.037Z,54.07
2023-05-19T10:56:34.379Z,54.31
2023-05-19T10:59:01.579Z,56.00
2023-05-19T11:01:35.135Z,56.04
2023-05-19T11:04:05.832Z,55.73
2023-05-19T11:06:33.302Z,56.94
2023-05-19T11:09:01.128Z,55.85
2023-05-19T11:11:28.657Z,57.08
2023-05-19T11:13:55.724Z,57.15
2023-05-19T11:16:29.875Z,56.88
2023-05-19T11:18:56.863Z,53.14
2023-05-19T11:21:23.520Z,54.71
2023-05-19T11:23:51.214Z,54.38
2023-05-19T11:26:25.789Z,56.15
2023-05-19T11:28:52.428Z,54.66
2023-05-19T11:31:19.136Z,55.10
2023-05-19T11:33:45.889Z,58.12
2023-05-19T11:36:12.830Z,58.04
2023-05-19T11:38:39.605Z,56.83
2023-05-19T11:41:06.281Z,56.36
2023-05-19T11:43:33.025Z,54.91
2023-05-19T11:46:01.029Z,56.53
2023-05-19T11:48:27.738Z,57.73
2023-05-19T11:50:54.578Z,57.27
2023-05-19T11:53:21.288Z,56.84
2023-05-19T11:55:48.571Z,56.31
2023-05-19T11:58:16.037Z,56.83
2023-05-19T12:00:43.426Z,53.33
2023-05-19T12:03:10.367Z,54.83
2023-05-19T12:05:41.994Z,53.85
2023-05-19T12:08:09.778Z,55.57
2023-05-19T12:10:36.608Z,55.66
2023-05-19T12:13:03.370Z,55.10
2023-05-19T12:15:30.027Z,53.53
2023-05-19T12:17:59.309Z,53.74
2023-05-19T12:20:26.446Z,55.33
2023-05-19T12:22:53.339Z,56.45
2023-05-19T12:25:20.040Z,56.48
2023-05-19T12:27:48.853Z,54.16
2023-05-19T12:30:16.441Z,55.15
2023-05-19T12:32:43.960Z,56.22
2023-05-19T12:35:11.161Z,56.35
2023-05-19T12:37:40.986Z,56.31
2023-05-19T12:40:08.007Z,57.69
2023-05-19T12:42:35.886Z,58.23
2023-05-19T12:45:03.397Z,58.02
2023-05-19T12:47:39.798Z,58.81
2023-05-19T12:50:08.576Z,58.41
2023-05-19T12:52:41.480Z,58.42
2023-05-19T12:55:08.562Z,56.20
2023-05-19T12:57:36.266Z,55.26
2023-05-19T13:00:07.123Z,58.40
2023-05-19T13:02:34.633Z,57.42
2023-05-19T13:05:01.329Z,55.83
2023-05-19T13:07:28.067Z,55.72
2023-05-19T13:09:54.733Z,55.24
2023-05-19T13:12:21.435Z,57.20
2023-05-19T13:14:48.104Z,55.44
2023-05-19T13:17:14.748Z,55.17
2023-05-19T13:19:41.463Z,56.38
2023-05-19T13:22:08.168Z,56.19
2023-05-19T13:24:34.796Z,57.97
2023-05-19T13:27:01.433Z,55.64
2023-05-19T13:29:28.409Z,57.21
2023-05-19T13:31:55.068Z,59.53
2023-05-19T13:34:22.048Z,57.26
2023-05-19T13:36:49.141Z,57.34
2023-05-19T13:39:15.904Z,58.94
2023-05-19T13:41:42.556Z,57.60
2023-05-19T13:44:13.195Z,57.56
2023-05-19T13:46:45.582Z,59.75
2023-05-19T13:49:13.528Z,58.57
2023-05-19T13:51:42.503Z,59.92
2023-05-19T13:54:09.197Z,58.97
2023-05-19T13:56:36.089Z,56.11
2023-05-19T13:59:04.262Z,58.44
2023-05-19T14:01:33.747Z,56.13
2023-05-19T14:04:01.293Z,57.31
2023-05-19T14:06:28.177Z,57.72
2023-05-19T14:08:54.812Z,56.51
2023-05-19T14:11:21.916Z,54.41
2023-05-19T14:13:52.354Z,57.23
2023-05-19T14:16:20.533Z,57.24
2023-05-19T14:18:47.333Z,55.34
2023-05-19T14:21:15.017Z,54.66
2023-05-19T14:23:41.698Z,56.23
2023-05-19T14:26:08.327Z,56.57
2023-05-19T14:28:35.457Z,56.75
2023-05-19T14:31:02.222Z,57.22
2023-05-19T14:33:31.143Z,55.82
2023-05-19T14:36:01.564Z,57.45
2023-05-19T14:38:29.457Z,56.55
2023-05-19T14:40:56.360Z,58.02
2023-05-19T14:43:23.004Z,58.19
2023-05-19T14:45:49.736Z,57.72
2023-05-19T14:48:16.461Z,54.85
2023-05-19T14:50:43.153Z,57.79
2023-05-19T14:53:09.923Z,57.12
2023-05-19T14:55:36.817Z,58.13
2023-05-19T14:58:07.920Z,57.13
2023-05-19T15:00:43.052Z,58.56
2023-05-19T15:03:09.846Z,54.66
2023-05-19T15:05:40.449Z,57.59
2023-05-19T15:08:07.137Z,55.29
2023-05-19T15:10:33.950Z,56.05
2023-05-19T15:13:01.842Z,57.72
2023-05-19T15:15:28.580Z,58.24
2023-05-19T15:17:55.233Z,57.31
2023-05-19T15:20:21.930Z,54.52
2023-05-19T15:22:49.295Z,56.19
2023-05-19T15:25:19.364Z,53.73
2023-05-19T15:27:46.039Z,54.46
2023-05-19T15:30:13.267Z,57.31
2023-05-19T15:32:40.028Z,54.76
2023-05-19T15:35:07.219Z,54.38
2023-05-19T15:37:33.891Z,54.78
2023-05-19T15:40:00.623Z,55.05
2023-05-19T15:42:27.311Z,53.96
2023-05-19T15:44:53.958Z,57.46
2023-05-19T15:47:20.662Z,56.58
2023-05-19T15:49:47.942Z,56.29
2023-05-19T15:52:14.608Z,53.20
2023-05-19T15:54:41.255Z,53.00
2023-05-19T15:57:07.931Z,56.54
2023-05-19T15:59:34.566Z,56.56
2023-05-19T16:02:01.750Z,55.46
2023-05-19T16:04:28.546Z,57.50
2023-05-19T16:06:55.260Z,58.01
2023-05-19T16:09:21.937Z,57.38
2023-05-19T16:11:48.648Z,56.78
2023-05-19T16:14:15.299Z,56.78
2023-05-19T16:16:42.444Z,55.31
2023-05-19T16:19:09.297Z,53.88
2023-05-19T16:21:36.236Z,54.89
2023-05-19T16:24:02.868Z,57.07
2023-05-19T16:26:29.544Z,55.24
2023-05-19T16:28:56.585Z,54.42
2023-05-19T16:31:23.519Z,54.56
2023-05-19T16:33:50.215Z,56.21
2023-05-19T16:36:17.016Z,57.20
2023-05-19T16:38:43.651Z,56.24
2023-05-19T16:41:13.025Z,56.28
2023-05-19T16:43:39.651Z,57.05
2023-05-19T16:46:06.760Z,53.12
2023-05-19T16:48:33.474Z,52.28
2023-05-19T16:51:00.249Z,52.58
2023-05-19T16:53:26.937Z,52.05
2023-05-19T16:55:53.662Z,52.40
2023-05-19T16:58:20.308Z,52.74
2023-05-19T17:00:46.957Z,55.12
2023-05-19T17:03:13.745Z,56.44
2023-05-19T17:05:42.067Z,57.07
2023-05-19T17:08:08.946Z,56.19
2023-05-19T17:10:36.119Z,54.94
2023-05-19T17:13:02.977Z,58.18
2023-05-19T17:15:29.664Z,59.70
2023-05-19T17:17:56.384Z,59.40
2023-05-19T17:20:23.137Z,58.02
2023-05-19T17:22:49.770Z,58.29
2023-05-19T17:25:16.607Z,58.06
2023-05-19T17:27:43.248Z,58.17
2023-05-19T17:30:10.238Z,59.32
2023-05-19T17:32:39.622Z,61.31
2023-05-19T17:35:06.830Z,61.70
2023-05-19T17:37:33.577Z,61.62
2023-05-19T17:40:00.293Z,60.92
2023-05-19T17:42:27.006Z,60.12
2023-05-19T17:44:53.909Z,60.41
2023-05-19T17:47:21.184Z,61.28
2023-05-19T17:49:48.115Z,62.63
2023-05-19T17:52:16.041Z,63.41
2023-05-19T17:54:42.757Z,63.81
2023-05-19T17:57:12.335Z,64.85
2023-05-19T17:59:39.045Z,65.98
2023-05-19T18:02:06.031Z,65.58
2023-05-19T18:04:32.869Z,65.82
2023-05-19T18:06:59.515Z,66.83
2023-05-19T18:09:28.759Z,66.79
2023-05-19T18:11:55.801Z,67.25
2023-05-19T18:14:22.524Z,66.64
2023-05-19T18:16:50.155Z,66.71
2023-05-19T18:19:16.949Z,66.50
2023-05-19T18:21:43.679Z,66.45
2023-05-19T18:24:10.311Z,67.37
2023-05-19T18:26:41.876Z,68.17
2023-05-19T18:29:09.366Z,67.32
2023-05-19T18:31:36.174Z,67.79
2023-05-19T18:34:04.503Z,68.05
2023-05-19T18:36:31.575Z,68.51
2023-05-19T18:38:59.135Z,68.28
2023-05-19T18:41:25.856Z,68.24
2023-05-19T18:43:52.504Z,68.43
2023-05-19T18:46:19.262Z,67.85
2023-05-19T18:48:46.004Z,68.34
2023-05-19T18:51:14.463Z,68.33
2023-05-19T18:53:41.527Z,68.45
2023-05-19T18:56:10.673Z,68.84
2023-05-19T18:58:37.310Z,68.86
2023-05-19T19:01:05.230Z,68.69
2023-05-19T19:03:32.203Z,69.50
2023-05-19T19:05:59.148Z,68.72
2023-05-19T19:08:25.777Z,69.15
2023-05-19T19:10:52.443Z,68.56
2023-05-19T19:13:19.244Z,68.82
2023-05-19T19:15:46.029Z,69.46
2023-05-19T19:18:12.980Z,69.02
2023-05-19T19:20:40.221Z,70.34
2023-05-19T19:23:06.957Z,70.63
2023-05-19T19:25:33.798Z,69.79
2023-05-19T19:28:01.126Z,70.05
2023-05-19T19:30:28.697Z,69.90
2023-05-19T19:32:56.367Z,70.24
2023-05-19T19:35:23.074Z,70.04
2023-05-19T19:37:52.011Z,69.32
2023-05-19T19:40:18.662Z,70.00
2023-05-19T19:42:45.318Z,70.20
2023-05-19T19:45:14.788Z,69.93
2023-05-19T19:47:42.324Z,70.54
2023-05-19T19:50:09.397Z,69.82
2023-05-19T19:52:36.085Z,69.93
2023-05-19T19:55:02.971Z,69.43
2023-05-19T19:57:31.756Z,69.79
2023-05-19T20:00:04.785Z,69.35
2023-05-19T20:02:31.547Z,68.81
2023-05-19T20:04:58.319Z,69.12
2023-05-19T20:07:25.010Z,69.40
2023-05-19T20:09:52.903Z,69.69
2023-05-19T20:12:19.551Z,69.71
2023-05-19T20:14:46.777Z,69.58
2023-05-19T20:17:13.401Z,69.54
2023-05-19T20:19:40.054Z,69.92
2023-05-19T20:22:06.706Z,69.75
2023-05-19T20:24:33.377Z,69.56
2023-05-19T20:27:00.142Z,69.52
2023-05-19T20:29:27.405Z,69.41
2023-05-19T20:31:55.564Z,69.31
2023-05-19T20:34:23.862Z,69.41
2023-05-19T20:36:50.514Z,70.65
2023-05-19T20:39:17.158Z,70.07
2023-05-19T20:41:44.004Z,69.47
2023-05-19T20:44:11.821Z,68.74
2023-05-19T20:46:38.474Z,68.79
2023-05-19T20:49:05.452Z,69.04
2023-05-19T20:51:32.921Z,69.56
2023-05-19T20:54:00.230Z,69.30
2023-05-19T20:56:27.119Z,69.12
2023-05-19T20:58:53.779Z,68.76
2023-05-19T21:01:20.792Z,69.32
2023-05-19T21:03:47.510Z,69.44
2023-05-19T21:06:14.201Z,70.47
2023-05-19T21:08:40.824Z,69.68
2023-05-19T21:11:07.466Z,69.83
2023-05-19T21:13:34.065Z,69.86
2023-05-19T21:16:00.819Z,69.85
2023-05-19T21:24:32.543Z,70.10
2023-05-19T21:26:59.236Z,70.50
2023-05-19T21:29:26.204Z,70.31
2023-05-19T21:31:56.218Z,70.37
2023-05-19T21:34:23.676Z,70.52
2023-05-19T21:39:50.621Z,70.40
2023-05-19T21:42:17.318Z,70.54
2023-05-19T21:44:43.976Z,71.19
2023-05-19T21:47:10.610Z,70.54
2023-05-19T21:49:38.500Z,71.17
2023-05-19T21:52:05.245Z,70.56
2023-05-19T21:54:31.939Z,70.74
2023-05-19T21:56:58.781Z,70.35
2023-05-19T21:59:26.445Z,70.97
2023-05-19T22:01:53.139Z,70.98
2023-05-19T22:04:21.383Z,70.91
2023-05-19T22:06:48.659Z,71.61
2023-05-19T22:09:15.392Z,71.35
2023-05-19T22:11:42.081Z,71.87
2023-05-19T22:14:08.765Z,70.87
2023-05-19T22:16:35.490Z,71.60
2023-05-19T22:19:02.336Z,71.96
2023-05-19T22:21:29.073Z,71.47
2023-05-19T22:23:55.933Z,71.51
2023-05-19T22:26:22.612Z,71.85
2023-05-19T22:28:49.631Z,71.68
2023-05-19T22:31:16.841Z,71.68
2023-05-19T22:33:43.516Z,72.25
2023-05-19T22:36:11.226Z,72.17
2023-05-19T22:38:37.948Z,72.92
2023-05-19T22:41:04.586Z,73.06
2023-05-19T22:43:31.326Z,73.28
2023-05-19T22:45:58.014Z,73.58
2023-05-19T22:48:25.181Z,73.83
2023-05-19T22:50:51.861Z,74.11
2023-05-19T22:53:18.546Z,73.98
2023-05-19T22:55:45.281Z,73.84
2023-05-19T22:58:11.968Z,73.52
2023-05-19T23:00:38.669Z,72.82
2023-05-19T23:03:05.425Z,73.50
2023-05-19T23:05:32.347Z,73.53
2023-05-19T23:07:59.109Z,73.61
2023-05-19T23:10:26.002Z,74.02
2023-05-19T23:12:52.728Z,74.00
2023-05-19T23:15:19.359Z,74.44
2023-05-19T23:17:46.063Z,74.52
2023-05-19T23:20:13.178Z,74.57
2023-05-19T23:22:39.840Z,74.86
2023-05-19T23:25:08.009Z,75.41
2023-05-19T23:27:35.294Z,75.34
2023-05-19T23:30:02.236Z,75.85
2023-05-19T23:32:29.012Z,75.38
2023-05-19T23:34:55.977Z,75.18
2023-05-19T23:37:22.742Z,74.74
2023-05-19T23:39:49.849Z,75.19
2023-05-19T23:42:16.569Z,74.50
2023-05-19T23:44:43.305Z,74.91
2023-05-19T23:47:10.058Z,75.62
2023-05-19T23:49:36.797Z,74.88
2023-05-19T23:52:03.459Z,75.53
2023-05-19T23:54:30.732Z,75.53
2023-05-19T23:56:57.469Z,75.33
2023-05-19T23:59:24.130Z,75.40
